Time;durP1;ratioP1;P1;durP2;ratioP2;P2;SDS_P1;SDS_P2;PMS_P1;PMS_P2;Temp;Humidity;BMP_temperature;BMP_pressure;BME280_temperature;BME280_humidity;BME280_pressure;Samples;Min_cycle;Max_cycle;Signal;HPM_P1;HPM_P2
2022/03/27 00:02:22;;;;;;;17.53;12.23;;;12.00;43.40;;;;;;5025732;28;20176;-91
2022/03/27 00:04:48;;;;;;;15.30;11.40;;;11.90;42.50;;;;;;5007045;28;20203;-93
2022/03/27 00:07:14;;;;;;;17.30;12.37;;;12.00;43.30;;;;;;5017707;28;20216;-91
2022/03/27 00:09:40;;;;;;;15.20;11.10;;;12.10;43.00;;;;;;5019646;28;20210;-91
2022/03/27 00:12:06;;;;;;;15.17;11.77;;;12.10;42.50;;;;;;5017608;28;20569;-90
2022/03/27 00:14:31;;;;;;;17.27;11.63;;;12.00;43.50;;;;;;5026043;28;20245;-91
2022/03/27 00:16:57;;;;;;;14.20;11.17;;;12.00;42.40;;;;;;5012469;28;20216;-91
2022/03/27 00:19:24;;;;;;;15.13;11.77;;;12.00;43.00;;;;;;5009955;28;20222;-90
2022/03/27 00:21:50;;;;;;;18.43;12.50;;;11.90;43.20;;;;;;5024035;28;20596;-91
2022/03/27 00:24:16;;;;;;;18.37;13.53;;;11.90;43.40;;;;;;5022018;28;20192;-90
2022/03/27 00:26:41;;;;;;;20.77;12.17;;;11.90;43.00;;;;;;5005649;28;20710;-91
2022/03/27 00:29:07;;;;;;;21.17;12.37;;;11.90;43.90;;;;;;5017040;28;20223;-91
2022/03/27 00:31:37;;;;;;;16.50;12.13;;;11.80;43.50;;;;;;5006759;28;20188;-90
2022/03/27 00:34:06;;;;;;;16.10;11.87;;;11.90;43.60;;;;;;5020376;28;20203;-91
2022/03/27 00:36:32;;;;;;;19.63;12.90;;;11.70;44.10;;;;;;5009011;28;20212;-91
2022/03/27 00:38:58;;;;;;;25.47;13.23;;;11.80;43.30;;;;;;5011953;28;20220;-91
2022/03/27 00:41:24;;;;;;;16.37;12.13;;;11.70;43.00;;;;;;5014845;28;20204;-91
2022/03/27 00:43:50;;;;;;;21.97;14.37;;;11.70;44.20;;;;;;5024795;28;20183;-91
2022/03/27 00:46:17;;;;;;;14.43;11.43;;;11.60;43.80;;;;;;5024609;28;20286;-91
2022/03/27 00:48:42;;;;;;;14.23;11.27;;;11.50;44.10;;;;;;5024338;28;20208;-92
2022/03/27 00:51:08;;;;;;;14.17;10.97;;;11.60;45.10;;;;;;5023652;28;20183;-92
2022/03/27 00:53:34;;;;;;;18.37;12.53;;;11.70;44.80;;;;;;5009432;28;20199;-91
2022/03/27 00:56:00;;;;;;;14.67;11.63;;;11.80;44.00;;;;;;5005131;28;20230;-91
2022/03/27 00:58:26;;;;;;;18.93;12.83;;;11.70;44.70;;;;;;5004912;28;20686;-91
2022/03/27 01:01:04;;;;;;;17.20;12.67;;;11.60;45.00;;;;;;5017927;28;20199;-91
2022/03/27 01:03:31;;;;;;;16.73;12.07;;;11.60;45.20;;;;;;5020458;28;20202;-91
2022/03/27 01:06:00;;;;;;;16.37;12.63;;;11.60;45.20;;;;;;5012704;28;20208;-91
2022/03/27 01:11:20;;;;;;;20.87;12.13;;;11.50;45.30;;;;;;5012862;28;20686;-91
2022/03/27 01:13:57;;;;;;;19.87;13.07;;;11.30;45.20;;;;;;5018103;28;20197;-92
2022/03/27 01:16:41;;;;;;;17.53;12.70;;;11.20;45.30;;;;;;5008275;28;20264;-92
2022/03/27 01:19:09;;;;;;;15.20;11.27;;;11.20;45.70;;;;;;5027725;28;20209;-92
2022/03/27 01:21:37;;;;;;;14.60;12.43;;;11.20;46.00;;;;;;5021802;28;20186;-91
2022/03/27 01:24:03;;;;;;;14.77;12.07;;;11.30;45.40;;;;;;5030512;28;20214;-92
2022/03/27 01:26:29;;;;;;;15.33;12.63;;;11.40;46.10;;;;;;5013504;28;20269;-91
2022/03/27 01:28:55;;;;;;;15.57;12.27;;;11.50;45.60;;;;;;5007427;28;20704;-92
2022/03/27 01:31:22;;;;;;;23.00;13.20;;;11.50;45.80;;;;;;5021904;28;20190;-91
2022/03/27 01:33:48;;;;;;;16.07;12.70;;;11.70;45.70;;;;;;5002757;28;20227;-91
2022/03/27 01:36:24;;;;;;;17.93;12.43;;;11.60;46.10;;;;;;5016595;28;20258;-91
2022/03/27 01:38:52;;;;;;;16.07;12.07;;;11.70;46.20;;;;;;5015208;28;20195;-92
2022/03/27 01:41:18;;;;;;;13.90;10.80;;;11.70;46.00;;;;;;5019071;28;20192;-92
2022/03/27 01:43:43;;;;;;;15.57;13.30;;;11.80;45.40;;;;;;5012689;28;20652;-91
2022/03/27 01:46:09;;;;;;;17.90;12.70;;;11.80;45.40;;;;;;5006561;28;20819;-91
2022/03/27 01:48:35;;;;;;;13.23;10.67;;;11.80;45.80;;;;;;5005900;28;20288;-90
2022/03/27 01:51:01;;;;;;;13.60;12.10;;;11.80;45.90;;;;;;5003370;28;20212;-91
2022/03/27 01:53:26;;;;;;;16.73;13.00;;;11.90;45.30;;;;;;5018785;28;20188;-91
2022/03/27 01:55:52;;;;;;;15.07;11.63;;;11.80;45.00;;;;;;5005322;28;20208;-91
2022/03/27 01:58:18;;;;;;;18.00;13.07;;;11.70;46.10;;;;;;5017787;28;20193;-91
2022/03/27 02:00:44;;;;;;;18.53;12.80;;;11.50;46.00;;;;;;5002531;28;20198;-90
2022/03/27 02:03:10;;;;;;;15.67;12.07;;;11.40;46.50;;;;;;5018762;28;20205;-90
2022/03/27 02:05:36;;;;;;;18.10;12.83;;;11.30;46.80;;;;;;5020460;28;20193;-90
2022/03/27 02:08:02;;;;;;;20.80;13.93;;;11.00;46.90;;;;;;5015501;28;20573;-90
2022/03/27 02:10:28;;;;;;;16.53;13.03;;;10.70;48.60;;;;;;5021178;28;20175;-90
2022/03/27 02:12:53;;;;;;;15.93;12.70;;;10.50;48.80;;;;;;5015326;28;20250;-90
2022/03/27 02:15:19;;;;;;;16.57;12.30;;;10.40;49.20;;;;;;5016787;28;20201;-90
2022/03/27 02:17:45;;;;;;;18.10;13.00;;;10.30;48.90;;;;;;5019250;28;20190;-90
2022/03/27 02:20:12;;;;;;;17.10;12.60;;;10.30;49.50;;;;;;5015998;28;20248;-90
2022/03/27 02:22:37;;;;;;;18.07;12.27;;;10.20;49.00;;;;;;5016720;28;20205;-90
2022/03/27 02:25:04;;;;;;;14.40;12.03;;;10.30;49.30;;;;;;5030514;28;20201;-90
2022/03/27 02:27:30;;;;;;;16.83;11.93;;;10.30;49.10;;;;;;5027294;28;20220;-89
2022/03/27 02:29:56;;;;;;;18.30;12.97;;;10.20;49.20;;;;;;5020830;28;20197;-90
2022/03/27 02:32:21;;;;;;;19.47;12.27;;;10.20;49.10;;;;;;5012205;28;20229;-90
2022/03/27 02:34:47;;;;;;;16.83;12.20;;;10.20;49.50;;;;;;5016516;28;20260;-90
2022/03/27 02:37:13;;;;;;;21.03;13.27;;;10.20;49.50;;;;;;5015854;28;20206;-90
2022/03/27 02:39:40;;;;;;;18.53;13.10;;;10.20;49.50;;;;;;5017495;28;20189;-91
2022/03/27 02:42:06;;;;;;;19.50;11.67;;;10.20;49.50;;;;;;5021584;28;20188;-90
2022/03/27 02:44:32;;;;;;;19.50;12.73;;;10.00;50.10;;;;;;5024310;28;20241;-90
2022/03/27 02:46:59;;;;;;;20.30;12.47;;;9.90;50.40;;;;;;5021569;28;20276;-90
2022/03/27 02:49:24;;;;;;;21.17;12.80;;;9.90;50.40;;;;;;5012131;28;20204;-90
2022/03/27 02:51:50;;;;;;;17.63;12.37;;;9.90;50.50;;;;;;5009104;28;20274;-91
2022/03/27 02:54:16;;;;;;;19.57;12.70;;;9.80;50.40;;;;;;5016864;28;20937;-90
2022/03/27 02:56:42;;;;;;;18.43;11.53;;;9.80;50.50;;;;;;5012256;28;20696;-89
2022/03/27 02:59:08;;;;;;;15.00;12.03;;;9.70;50.90;;;;;;5008684;28;20178;-90
2022/03/27 03:01:34;;;;;;;15.97;11.13;;;9.60;51.20;;;;;;5017594;28;20228;-90
2022/03/27 03:03:59;;;;;;;15.87;12.10;;;9.60;51.40;;;;;;5028800;28;20184;-90
2022/03/27 03:06:25;;;;;;;14.93;11.27;;;9.50;51.70;;;;;;5024602;28;20252;-90
2022/03/27 03:08:52;;;;;;;15.40;11.67;;;9.50;52.20;;;;;;5018356;28;20220;-90
2022/03/27 03:11:20;;;;;;;21.30;12.50;;;9.50;52.30;;;;;;5023849;28;20197;-89
2022/03/27 03:13:47;;;;;;;22.17;11.97;;;9.50;52.40;;;;;;5029988;28;20224;-90
2022/03/27 03:16:15;;;;;;;16.87;11.83;;;9.50;52.00;;;;;;5026570;28;20695;-90
2022/03/27 03:18:42;;;;;;;17.13;11.90;;;9.50;52.30;;;;;;5033318;28;20165;-89
2022/03/27 03:21:08;;;;;;;17.97;11.53;;;9.60;52.20;;;;;;5032032;28;20193;-90
2022/03/27 03:23:34;;;;;;;15.33;12.07;;;9.70;51.80;;;;;;5024059;28;20186;-89
2022/03/27 03:26:00;;;;;;;16.17;11.80;;;9.80;52.10;;;;;;5034561;28;20205;-90
2022/03/27 03:28:26;;;;;;;16.60;11.57;;;9.60;52.10;;;;;;5028047;28;20217;-90
2022/03/27 03:30:52;;;;;;;18.17;12.40;;;9.40;52.50;;;;;;5026488;28;20263;-90
2022/03/27 03:33:19;;;;;;;23.33;13.33;;;9.30;53.00;;;;;;5018614;28;20186;-89
2022/03/27 03:35:45;;;;;;;16.97;12.40;;;9.30;53.30;;;;;;5033188;28;20224;-88
2022/03/27 03:38:11;;;;;;;16.87;11.87;;;9.30;53.30;;;;;;5036088;28;20188;-89
2022/03/27 03:40:40;;;;;;;15.87;11.70;;;9.10;53.70;;;;;;5024843;28;20174;-89
2022/03/27 03:43:06;;;;;;;20.70;12.83;;;9.20;53.80;;;;;;5042985;28;20170;-88
2022/03/27 03:45:32;;;;;;;16.90;11.97;;;8.90;54.50;;;;;;5029057;28;20224;-89
2022/03/27 03:47:59;;;;;;;15.27;11.67;;;8.90;55.00;;;;;;5023835;28;20225;-89
2022/03/27 03:50:25;;;;;;;19.00;11.60;;;8.70;55.70;;;;;;5015644;28;20205;-90
2022/03/27 03:52:51;;;;;;;19.47;11.27;;;8.70;55.60;;;;;;5025421;28;20182;-90
2022/03/27 03:55:16;;;;;;;14.43;11.07;;;8.60;55.90;;;;;;5020352;28;20233;-90
2022/03/27 03:57:42;;;;;;;19.23;12.03;;;8.50;56.10;;;;;;5008043;28;20177;-89
2022/03/27 04:00:08;;;;;;;15.77;12.53;;;8.40;56.30;;;;;;5018371;28;20722;-90
2022/03/27 04:02:34;;;;;;;16.33;12.20;;;8.30;56.60;;;;;;5015915;28;20179;-90
2022/03/27 04:05:01;;;;;;;15.93;11.73;;;8.50;56.50;;;;;;5021660;28;20236;-90
2022/03/27 04:07:27;;;;;;;16.57;11.43;;;8.40;56.70;;;;;;5009211;28;20194;-90
2022/03/27 04:09:52;;;;;;;18.47;12.70;;;8.50;56.60;;;;;;5012172;28;20832;-90
2022/03/27 04:12:18;;;;;;;23.03;14.00;;;8.50;56.40;;;;;;5011375;28;20265;-90
2022/03/27 04:14:44;;;;;;;17.27;12.10;;;8.50;56.70;;;;;;5003506;28;20199;-90
2022/03/27 04:17:10;;;;;;;19.87;12.90;;;8.40;56.90;;;;;;5011049;28;20560;-90
2022/03/27 04:19:35;;;;;;;15.63;11.93;;;8.40;57.00;;;;;;5031083;28;20253;-89
2022/03/27 04:22:01;;;;;;;17.53;12.93;;;8.30;57.30;;;;;;5023956;28;20229;-89
2022/03/27 04:24:27;;;;;;;14.70;11.53;;;8.30;57.40;;;;;;5004331;28;20193;-89
2022/03/27 04:26:53;;;;;;;15.90;11.20;;;8.40;57.20;;;;;;5011548;28;20201;-90
2022/03/27 04:29:19;;;;;;;15.57;12.60;;;8.60;57.00;;;;;;5021483;28;20224;-90
2022/03/27 04:31:45;;;;;;;17.90;13.17;;;8.70;56.40;;;;;;5023756;28;20209;-89
2022/03/27 04:34:11;;;;;;;16.93;12.73;;;8.70;56.10;;;;;;5007025;28;20182;-90
2022/03/27 04:36:37;;;;;;;18.83;12.70;;;8.70;56.40;;;;;;5016395;28;20207;-89
2022/03/27 04:39:04;;;;;;;14.93;12.43;;;8.80;55.90;;;;;;5019538;28;20185;-90
2022/03/27 04:41:30;;;;;;;16.20;12.13;;;8.80;55.80;;;;;;5015295;28;20208;-90
2022/03/27 04:43:56;;;;;;;20.27;12.67;;;8.80;55.90;;;;;;5018321;28;20795;-89
2022/03/27 04:46:22;;;;;;;18.07;12.90;;;8.90;55.80;;;;;;5018906;28;20268;-90
2022/03/27 04:48:47;;;;;;;21.67;12.40;;;9.00;55.50;;;;;;5022255;28;20305;-89
2022/03/27 04:51:14;;;;;;;19.97;13.23;;;9.10;55.20;;;;;;5020010;28;20182;-90
2022/03/27 04:53:40;;;;;;;18.17;12.23;;;9.10;55.10;;;;;;5019468;28;20596;-89
2022/03/27 04:56:06;;;;;;;18.87;13.50;;;9.20;55.00;;;;;;5020398;28;20206;-89
2022/03/27 04:58:32;;;;;;;18.33;12.80;;;9.10;54.90;;;;;;5019394;28;20189;-89
2022/03/27 05:00:58;;;;;;;17.67;12.03;;;8.90;55.60;;;;;;5023645;28;20201;-89
2022/03/27 05:03:24;;;;;;;21.37;13.87;;;8.90;56.10;;;;;;5015833;28;20166;-88
2022/03/27 05:05:50;;;;;;;20.20;13.53;;;8.90;56.10;;;;;;5026860;28;20236;-89
2022/03/27 05:08:15;;;;;;;18.10;13.00;;;8.90;56.30;;;;;;5024246;28;20281;-88
2022/03/27 05:10:41;;;;;;;15.97;12.43;;;9.00;56.30;;;;;;5023454;28;20238;-89
2022/03/27 05:13:07;;;;;;;17.73;14.17;;;9.00;55.60;;;;;;5021191;28;20204;-89
2022/03/27 05:15:33;;;;;;;19.37;13.90;;;9.20;55.60;;;;;;5038584;28;20216;-89
2022/03/27 05:17:59;;;;;;;20.10;12.47;;;9.20;55.40;;;;;;5018103;28;20193;-89
2022/03/27 05:20:28;;;;;;;19.43;13.53;;;9.20;55.60;;;;;;5020715;28;20212;-88
2022/03/27 05:22:55;;;;;;;18.77;14.07;;;9.10;55.50;;;;;;5026461;28;20178;-88
2022/03/27 05:25:21;;;;;;;19.40;13.87;;;8.90;56.40;;;;;;5011326;28;20186;-88
2022/03/27 05:27:53;;;;;;;17.87;13.00;;;8.80;57.30;;;;;;5022882;28;20672;-88
2022/03/27 05:30:25;;;;;;;19.07;12.90;;;8.60;57.70;;;;;;5023950;28;20190;-88
2022/03/27 05:32:53;;;;;;;17.20;12.93;;;8.50;58.40;;;;;;5021615;28;20186;-88
2022/03/27 05:35:20;;;;;;;18.17;13.07;;;8.40;58.70;;;;;;5008159;28;20202;-88
2022/03/27 05:37:48;;;;;;;18.40;13.97;;;8.30;59.50;;;;;;5019697;28;20214;-90
2022/03/27 05:40:17;;;;;;;19.57;12.90;;;8.10;60.20;;;;;;5004542;28;20242;-88
2022/03/27 05:42:43;;;;;;;18.17;13.00;;;8.10;60.40;;;;;;5003662;28;20193;-88
2022/03/27 05:45:10;;;;;;;17.63;12.47;;;8.10;60.80;;;;;;5022393;28;20201;-88
2022/03/27 05:47:41;;;;;;;19.57;12.83;;;8.20;60.80;;;;;;5023022;28;20217;-88
2022/03/27 05:50:08;;;;;;;19.00;12.97;;;8.20;60.90;;;;;;5005153;28;20320;-90
2022/03/27 05:52:34;;;;;;;15.70;13.13;;;8.30;60.40;;;;;;5024161;28;20173;-90
2022/03/27 05:55:00;;;;;;;17.97;15.03;;;8.30;60.30;;;;;;5006003;28;20197;-88
2022/03/27 05:57:26;;;;;;;21.80;14.77;;;8.40;60.20;;;;;;5009427;28;20289;-89
2022/03/27 05:59:51;;;;;;;20.07;17.47;;;8.40;60.30;;;;;;5022246;28;20209;-88
2022/03/27 06:02:17;;;;;;;24.93;20.90;;;8.50;60.30;;;;;;5004053;28;20178;-89
2022/03/27 06:04:43;;;;;;;27.10;21.40;;;8.50;60.30;;;;;;5017318;28;20302;-88
2022/03/27 06:07:10;;;;;;;22.97;18.03;;;8.60;60.30;;;;;;5028024;28;20333;-88
2022/03/27 06:09:36;;;;;;;16.83;15.10;;;8.60;60.30;;;;;;5035973;28;20217;-88
2022/03/27 06:12:03;;;;;;;25.30;17.87;;;8.60;60.20;;;;;;5022322;28;20221;-88
2022/03/27 06:14:30;;;;;;;24.17;17.70;;;8.70;60.40;;;;;;5007159;28;20182;-88
2022/03/27 06:16:56;;;;;;;22.43;14.67;;;8.70;60.30;;;;;;5024178;28;20221;-88
2022/03/27 06:19:21;;;;;;;18.43;13.53;;;8.70;60.80;;;;;;5023703;28;20239;-89
2022/03/27 06:21:47;;;;;;;18.10;12.80;;;8.60;61.00;;;;;;5025550;28;20166;-88
2022/03/27 06:24:13;;;;;;;19.50;13.03;;;8.60;61.20;;;;;;5026242;28;20177;-90
2022/03/27 06:26:40;;;;;;;18.03;13.23;;;8.50;61.60;;;;;;5032076;28;20253;-89
2022/03/27 06:29:07;;;;;;;15.77;13.00;;;8.60;61.10;;;;;;5014646;28;20213;-89
2022/03/27 06:31:33;;;;;;;17.83;12.37;;;8.70;60.80;;;;;;5006890;28;20200;-90
2022/03/27 06:33:59;;;;;;;18.43;13.70;;;8.80;60.60;;;;;;5008956;28;20190;-89
2022/03/27 06:36:24;;;;;;;14.80;13.03;;;8.80;60.60;;;;;;4998768;28;20218;-89
2022/03/27 06:38:50;;;;;;;15.63;12.57;;;8.80;60.60;;;;;;5004227;28;20186;-89
2022/03/27 06:41:16;;;;;;;17.07;13.90;;;8.90;60.50;;;;;;4997323;28;20187;-90
2022/03/27 06:43:41;;;;;;;18.53;13.23;;;8.90;60.40;;;;;;4996843;28;20187;-89
2022/03/27 06:46:07;;;;;;;16.97;12.93;;;8.90;60.30;;;;;;5009246;28;20229;-89
2022/03/27 06:48:33;;;;;;;15.87;12.83;;;8.90;60.30;;;;;;5016697;28;20207;-89
2022/03/27 06:50:59;;;;;;;18.53;13.10;;;8.90;60.50;;;;;;5017451;28;20181;-89
2022/03/27 06:53:25;;;;;;;20.90;13.67;;;9.00;60.30;;;;;;5006193;28;20664;-89
2022/03/27 06:55:51;;;;;;;21.10;13.67;;;9.10;60.20;;;;;;5017759;28;20225;-89
2022/03/27 06:58:17;;;;;;;18.80;13.70;;;9.10;60.10;;;;;;5020262;28;20173;-89
2022/03/27 07:03:28;;;;;;;19.53;13.70;;;9.20;60.30;;;;;;5012527;28;20263;-89
2022/03/27 07:05:53;;;;;;;18.37;12.10;;;9.30;59.40;;;;;;5023571;28;20860;-89
2022/03/27 07:08:20;;;;;;;19.57;13.03;;;9.30;59.40;;;;;;5034145;28;20712;-88
2022/03/27 07:10:47;;;;;;;18.47;13.77;;;9.40;59.20;;;;;;5017156;28;20190;-89
2022/03/27 07:13:15;;;;;;;16.27;12.30;;;9.50;58.70;;;;;;5025544;28;20224;-89
2022/03/27 07:15:42;;;;;;;18.53;13.93;;;9.60;59.30;;;;;;5008920;28;20202;-90
2022/03/27 07:18:09;;;;;;;22.77;13.53;;;9.70;58.00;;;;;;5020357;28;20755;-89
2022/03/27 07:20:37;;;;;;;19.47;14.30;;;9.70;57.60;;;;;;5019279;28;20188;-89
2022/03/27 07:23:09;;;;;;;16.40;13.20;;;9.80;57.20;;;;;;5018450;28;20186;-90
2022/03/27 07:25:38;;;;;;;18.73;13.80;;;9.90;57.10;;;;;;5006939;28;20201;-90
2022/03/27 07:28:05;;;;;;;18.27;14.03;;;10.10;57.10;;;;;;5006114;28;20208;-89
2022/03/27 07:30:31;;;;;;;18.47;14.03;;;10.10;56.40;;;;;;5009397;28;20229;-90
2022/03/27 07:32:57;;;;;;;22.00;15.83;;;10.20;56.30;;;;;;5010592;28;20183;-90
2022/03/27 07:35:26;;;;;;;21.00;14.80;;;10.30;56.40;;;;;;5011828;28;20233;-88
2022/03/27 07:37:53;;;;;;;16.60;13.87;;;10.40;56.30;;;;;;4986868;28;20203;-89
2022/03/27 07:40:22;;;;;;;19.60;15.20;;;10.50;56.30;;;;;;5012900;28;20807;-89
2022/03/27 07:42:50;;;;;;;18.57;15.20;;;10.70;55.50;;;;;;5016132;28;20194;-88
2022/03/27 07:45:19;;;;;;;21.33;14.43;;;10.70;54.90;;;;;;5016596;28;20245;-89
2022/03/27 07:47:46;;;;;;;17.80;14.27;;;10.80;54.60;;;;;;5021373;28;20220;-89
2022/03/27 07:50:13;;;;;;;20.30;13.80;;;10.80;54.60;;;;;;5034673;28;20193;-88
2022/03/27 07:52:39;;;;;;;17.43;13.40;;;10.90;54.40;;;;;;5035467;28;20204;-87
2022/03/27 07:55:07;;;;;;;22.37;15.17;;;11.10;54.70;;;;;;5016784;28;20186;-89
2022/03/27 07:57:33;;;;;;;20.40;15.43;;;11.20;54.30;;;;;;5023664;28;20205;-89
2022/03/27 07:59:59;;;;;;;17.83;15.17;;;11.30;54.00;;;;;;5026107;28;20563;-89
2022/03/27 08:02:25;;;;;;;19.80;16.03;;;11.50;52.90;;;;;;5014099;28;20189;-89
2022/03/27 08:04:51;;;;;;;20.53;15.80;;;11.50;51.70;;;;;;5010893;28;20190;-90
2022/03/27 08:07:17;;;;;;;18.40;15.33;;;11.60;51.30;;;;;;5020630;28;20216;-90
2022/03/27 08:09:43;;;;;;;21.03;15.30;;;11.70;51.10;;;;;;5015218;28;20716;-89
2022/03/27 08:12:09;;;;;;;20.13;14.93;;;11.80;50.90;;;;;;5008920;28;20210;-89
2022/03/27 08:14:36;;;;;;;22.43;15.93;;;11.90;51.10;;;;;;5011917;28;20347;-89
2022/03/27 08:17:02;;;;;;;27.20;16.30;;;12.10;50.00;;;;;;5015069;28;20214;-90
2022/03/27 08:19:28;;;;;;;18.37;15.83;;;12.20;50.40;;;;;;5012777;28;20195;-89
2022/03/27 08:21:54;;;;;;;19.47;15.43;;;12.30;49.50;;;;;;5008746;28;20191;-90
2022/03/27 08:24:20;;;;;;;24.80;16.13;;;12.40;49.40;;;;;;5010785;28;20191;-90
2022/03/27 08:27:02;;;;;;;24.17;15.70;;;12.50;49.00;;;;;;5013746;28;20245;-89
2022/03/27 08:29:31;;;;;;;22.43;15.57;;;12.70;49.00;;;;;;5014222;28;20237;-90
2022/03/27 08:32:00;;;;;;;18.60;15.67;;;12.80;48.90;;;;;;5008448;28;20207;-89
2022/03/27 08:34:28;;;;;;;20.13;15.27;;;13.00;49.20;;;;;;5008602;28;20264;-89
2022/03/27 08:36:55;;;;;;;19.00;15.20;;;13.10;47.00;;;;;;5008714;28;20214;-89
2022/03/27 08:39:21;;;;;;;21.30;15.40;;;13.20;47.00;;;;;;5013348;28;20282;-88
2022/03/27 08:41:49;;;;;;;19.60;14.77;;;13.20;47.10;;;;;;5005948;28;20221;-89
2022/03/27 08:44:21;;;;;;;18.50;14.73;;;13.30;47.10;;;;;;5014089;28;20227;-90
2022/03/27 08:46:48;;;;;;;20.50;14.97;;;13.40;46.80;;;;;;5003868;28;20231;-89
2022/03/27 08:49:34;;;;;;;21.77;15.23;;;13.50;46.50;;;;;;5011693;28;20221;-90
2022/03/27 08:52:17;;;;;;;22.03;14.53;;;13.60;46.20;;;;;;5029458;28;20233;-88
2022/03/27 08:55:05;;;;;;;17.67;14.90;;;13.70;46.40;;;;;;5003321;28;20197;-90
2022/03/27 08:57:53;;;;;;;20.70;15.60;;;14.00;45.60;;;;;;5010429;28;20212;-89
2022/03/27 09:00:24;;;;;;;19.37;15.40;;;14.20;45.40;;;;;;5021868;28;20648;-89
2022/03/27 09:02:50;;;;;;;21.43;15.03;;;14.30;44.80;;;;;;5005191;28;20189;-89
2022/03/27 09:05:17;;;;;;;20.07;14.43;;;14.40;45.00;;;;;;5005848;28;20197;-89
2022/03/27 09:07:42;;;;;;;17.13;14.93;;;14.60;44.60;;;;;;5013760;28;20212;-90
2022/03/27 09:10:09;;;;;;;16.17;14.43;;;14.80;43.90;;;;;;5009538;28;20203;-89
2022/03/27 09:12:35;;;;;;;23.50;14.70;;;15.00;43.30;;;;;;5006379;28;20272;-89
2022/03/27 09:15:07;;;;;;;19.40;16.50;;;15.20;42.50;;;;;;5005866;28;20203;-89
2022/03/27 09:17:33;;;;;;;21.10;16.30;;;15.10;42.10;;;;;;5012209;28;20234;-90
2022/03/27 09:19:58;;;;;;;21.17;15.70;;;15.30;42.50;;;;;;5002681;28;20186;-90
2022/03/27 09:22:32;;;;;;;19.97;15.90;;;15.60;42.00;;;;;;5006683;28;20262;-89
2022/03/27 09:25:04;;;;;;;19.53;15.47;;;15.70;41.20;;;;;;5012745;28;20561;-90
2022/03/27 09:27:37;;;;;;;20.30;16.87;;;15.90;41.10;;;;;;5014616;28;20227;-90
2022/03/27 09:30:09;;;;;;;16.90;14.53;;;16.00;40.40;;;;;;5015442;28;20217;-90
2022/03/27 09:32:38;;;;;;;18.30;14.93;;;16.20;40.10;;;;;;5012523;28;20217;-89
2022/03/27 09:35:09;;;;;;;20.43;15.03;;;16.40;39.80;;;;;;5017154;28;20187;-90
2022/03/27 09:37:41;;;;;;;16.93;14.93;;;16.60;39.60;;;;;;5016389;28;20213;-89
2022/03/27 09:40:09;;;;;;;20.60;14.93;;;16.60;39.40;;;;;;5010455;28;20299;-89
2022/03/27 09:42:38;;;;;;;21.93;14.93;;;16.70;38.90;;;;;;5017280;28;20273;-89
2022/03/27 09:45:13;;;;;;;21.60;15.33;;;16.70;38.90;;;;;;5017738;28;20179;-90
2022/03/27 09:47:40;;;;;;;18.63;15.27;;;17.00;38.90;;;;;;5021280;28;20228;-90
2022/03/27 09:50:06;;;;;;;17.13;14.73;;;17.10;38.20;;;;;;5011845;28;20699;-90
2022/03/27 09:52:36;;;;;;;17.57;14.43;;;17.20;38.70;;;;;;5021798;28;20198;-89
2022/03/27 09:55:09;;;;;;;21.70;15.43;;;17.50;37.80;;;;;;5033569;28;20234;-90
2022/03/27 09:57:36;;;;;;;18.53;14.63;;;17.60;37.50;;;;;;5027342;28;20204;-90
2022/03/27 10:00:15;;;;;;;19.47;15.33;;;17.70;38.30;;;;;;5013626;28;20209;-90
2022/03/27 10:02:43;;;;;;;16.27;13.90;;;18.00;36.50;;;;;;5014873;28;20185;-90
2022/03/27 10:05:16;;;;;;;21.47;16.03;;;18.10;37.50;;;;;;5010494;28;20182;-89
2022/03/27 10:07:43;;;;;;;17.30;15.00;;;18.30;36.40;;;;;;5009651;28;20534;-90
2022/03/27 10:10:15;;;;;;;20.93;16.70;;;18.50;36.00;;;;;;4983483;28;20202;-90
2022/03/27 10:12:44;;;;;;;24.33;16.30;;;18.60;35.60;;;;;;5016941;28;20190;-90
2022/03/27 10:15:13;;;;;;;16.90;15.20;;;18.60;35.60;;;;;;5018803;28;20183;-89
2022/03/27 10:17:43;;;;;;;19.63;15.37;;;18.80;35.30;;;;;;5015589;28;20214;-90
2022/03/27 10:20:14;;;;;;;20.30;15.40;;;18.80;35.20;;;;;;5016253;28;20668;-90
2022/03/27 10:22:45;;;;;;;17.90;14.50;;;19.00;34.80;;;;;;5014529;28;20191;-90
2022/03/27 10:25:13;;;;;;;17.65;15.20;;;19.20;34.20;;;;;;5015831;28;20195;-89
2022/03/27 10:27:41;;;;;;;21.42;15.52;;;19.50;34.10;;;;;;5018984;28;20250;-90
2022/03/27 10:30:10;;;;;;;16.87;15.07;;;19.70;33.70;;;;;;5014647;28;20218;-89
2022/03/27 10:32:36;;;;;;;18.80;14.93;;;19.70;33.70;;;;;;5007341;28;20198;-90
2022/03/27 10:35:06;;;;;;;18.17;15.17;;;19.60;33.80;;;;;;5022264;28;20247;-91
2022/03/27 10:37:59;;;;;;;21.38;15.63;;;19.70;33.40;;;;;;5008887;28;20196;-89
2022/03/27 10:40:49;;;;;;;16.88;14.95;;;19.90;32.90;;;;;;5006114;28;20175;-90
2022/03/27 10:43:36;;;;;;;22.73;15.45;;;20.10;32.70;;;;;;5013307;28;20188;-89
2022/03/27 10:46:24;;;;;;;16.58;14.75;;;20.30;32.20;;;;;;5030837;28;20225;-90
2022/03/27 10:48:51;;;;;;;20.85;15.02;;;20.50;31.20;;;;;;5011979;28;20212;-90
2022/03/27 10:51:29;;;;;;;17.00;14.82;;;20.60;31.50;;;;;;4999405;28;20301;-90
2022/03/27 10:54:19;;;;;;;16.73;14.80;;;20.90;31.60;;;;;;5022311;28;20192;-90
2022/03/27 10:56:48;;;;;;;20.23;15.02;;;21.20;31.10;;;;;;5017790;28;20210;-90
2022/03/27 10:59:19;;;;;;;20.98;15.35;;;21.30;30.80;;;;;;5021150;28;20175;-89
2022/03/27 11:01:45;;;;;;;18.15;15.25;;;21.30;31.00;;;;;;5024781;28;20214;-90
2022/03/27 11:04:13;;;;;;;19.30;14.88;;;21.40;30.00;;;;;;5027051;28;20201;-91
2022/03/27 11:06:42;;;;;;;18.90;15.05;;;21.70;29.70;;;;;;5016620;28;20265;-90
2022/03/27 11:09:10;;;;;;;20.92;15.23;;;21.60;29.90;;;;;;5016089;28;20302;-90
2022/03/27 11:11:36;;;;;;;17.25;15.55;;;21.80;29.50;;;;;;5008899;28;20193;-90
2022/03/27 11:14:06;;;;;;;18.73;15.43;;;21.80;29.70;;;;;;5010269;28;20550;-90
2022/03/27 11:16:37;;;;;;;17.20;15.18;;;21.50;30.20;;;;;;5014073;28;20652;-90
2022/03/27 11:19:04;;;;;;;18.08;15.02;;;21.80;29.90;;;;;;5017611;28;20179;-90
2022/03/27 11:21:30;;;;;;;18.48;15.77;;;21.80;29.80;;;;;;5018489;28;20213;-90
2022/03/27 11:24:01;;;;;;;16.48;14.55;;;21.90;29.80;;;;;;5012966;28;20188;-91
2022/03/27 11:26:27;;;;;;;16.35;14.55;;;22.10;29.90;;;;;;5017998;28;20207;-91
2022/03/27 11:29:22;;;;;;;20.25;15.05;;;22.20;29.60;;;;;;5022813;28;20759;-91
2022/03/27 11:32:10;;;;;;;20.23;14.90;;;22.20;29.90;;;;;;5020635;28;20184;-90
2022/03/27 11:34:37;;;;;;;21.70;15.48;;;22.20;29.40;;;;;;5022738;28;20173;-92
2022/03/27 11:37:25;;;;;;;16.63;14.90;;;22.30;29.30;;;;;;5006661;28;20296;-90
2022/03/27 11:39:52;;;;;;;18.50;14.77;;;22.70;29.70;;;;;;5009319;28;20196;-89
2022/03/27 11:42:22;;;;;;;17.38;15.40;;;22.90;29.30;;;;;;5009759;28;20287;-89
2022/03/27 11:47:52;;;;;;;18.27;14.10;;;22.50;28.50;;;;;;4961972;28;20206;-90
2022/03/27 11:50:34;;;;;;;15.52;13.93;;;22.70;28.60;;;;;;5021139;28;20200;-89
2022/03/27 11:53:02;;;;;;;15.43;13.88;;;22.90;28.30;;;;;;5034693;28;20169;-90
2022/03/27 11:55:33;;;;;;;16.45;14.68;;;23.20;28.10;;;;;;5036054;28;20254;-94
2022/03/27 11:58:00;;;;;;;16.30;14.48;;;23.40;27.40;;;;;;5040116;28;20211;-95
2022/03/27 12:00:37;;;;;;;15.60;14.13;;;23.00;28.10;;;;;;5039275;28;20197;-92
2022/03/27 12:03:22;;;;;;;17.63;13.77;;;23.20;27.80;;;;;;5020746;28;20184;-93
2022/03/27 12:05:49;;;;;;;16.73;13.98;;;23.50;28.10;;;;;;5033337;28;20224;-91
2022/03/27 12:08:17;;;;;;;16.50;14.75;;;23.70;27.40;;;;;;5004849;28;20312;-91
2022/03/27 12:10:56;;;;;;;16.13;13.25;;;24.20;27.00;;;;;;5011284;28;20178;-89
2022/03/27 12:13:22;;;;;;;15.95;13.52;;;24.30;26.60;;;;;;5016615;28;20220;-91
2022/03/27 12:15:50;;;;;;;18.58;14.43;;;24.00;26.50;;;;;;5002322;28;20209;-90
2022/03/27 12:18:32;;;;;;;20.15;13.43;;;23.90;26.60;;;;;;5019811;28;20186;-93
2022/03/27 12:21:01;;;;;;;16.77;14.13;;;24.50;27.10;;;;;;5021201;28;20184;-91
2022/03/27 12:23:28;;;;;;;17.90;14.00;;;24.70;25.80;;;;;;5023835;28;20195;-90
2022/03/27 12:26:01;;;;;;;17.30;14.20;;;24.10;26.90;;;;;;5021453;28;20193;-90
2022/03/27 12:31:23;;;;;;;16.38;13.43;;;23.70;27.30;;;;;;5005543;28;20201;-90
2022/03/27 12:33:50;;;;;;;19.98;12.63;;;24.50;26.40;;;;;;5009877;28;20272;-90
2022/03/27 12:36:16;;;;;;;18.77;13.75;;;24.40;26.30;;;;;;5009468;28;20210;-92
2022/03/27 12:38:43;;;;;;;18.23;14.13;;;24.50;25.90;;;;;;5016812;28;20234;-89
2022/03/27 12:41:10;;;;;;;18.15;14.50;;;24.80;25.60;;;;;;5014418;28;20209;-90
2022/03/27 12:43:41;;;;;;;16.27;13.60;;;24.60;26.00;;;;;;5012634;28;20210;-90
2022/03/27 12:46:21;;;;;;;16.40;14.68;;;24.70;25.30;;;;;;5005854;28;20294;-91
2022/03/27 12:49:03;;;;;;;14.60;13.10;;;24.40;25.50;;;;;;4999780;28;20210;-89